Trilby, FL

11:45 AM EST on February 01, 2015 (GMT -0500)
Dade City at Blanton | Change Station
CLOSE
Current Station
Personal Weather Station
Location: Dade City, FL
Elevation: 170 ft
Nearby Weather Stations

Elev 170 ft 28.40 °N, 82.25 °W | Updated 1 minute ago

Clear
Clear
69.1 °F
Feels Like 69.1 °F
N
7.0
Wind Variable Wind from South
Gusts 7.0 mph

Today
High -- | Low -- °F
--% Chance of Precip.
Yesterday
High -- | Low -- °F
Precip. -- in
7:16 AM 6:08 PM
Waxing Gibbous, 95% visible
Pressure 30.23 in
Visibility 10.0 miles
Clouds Clear
Dew Point 54 °F
Humidity 59%
Rainfall 0.00 in
Snow Depth Not available.
UV 7 out of 12
Pollen 9.20 out of 12
Air Quality Not available.
Flu Activity Not available.
METAR KZPH 011635Z AUTO 16013G19KT 10SM CLR 22/08 A3023 RMK AO2

More Conditions Fewer Conditions

Pressure 30.23 in
Visibility 10.0 miles
Clouds Clear
Dew Point 54 °F
Humidity 59%
Rainfall 0.00 in
Snow Depth Not available.
UV 7 out of 12
Pollen 9.20 out of 12
Air Quality Not available.
Flu Activity Not available.
METAR KZPH 011635Z AUTO 16013G19KT 10SM CLR 22/08 A3023 RMK AO2

More Conditions Fewer Conditions

10-Day Weather Forecast

Almanac

Astronomy

Feb. 01, 2015 Rise Set
Actual Time
Civil Twilight
Nautical Twilight
Astronomical Twilight
Moon
Length of Visible Light
Length of Day
Tomorrow will be .
, % of the Moon is Illuminated

Today's Extremes

State Highs State Lows

Community

WunderPhotos

Upload Photos

1,792,367 photos uploaded!

WunderBlogs® & News

Nearby

Air Quality

  Air Quality AQ Index Pollutant
Not available.

Snow Depth

Station Depth Elevation

Earthquake Activity

City Distance Mag. Time & Date
Minimum magnitude displayed is 2.5.

Coastal Water Temperatures

Place Temperature

Nearby Weather Stations